Time;durP1;ratioP1;P1;durP2;ratioP2;P2;SDS_P1;SDS_P2;PMS_P1;PMS_P2;Temp;Humidity;BMP_temperature;BMP_pressure;BME280_temperature;BME280_humidity;BME280_pressure;Samples;Min_cycle;Max_cycle;Signal;HPM_P1;HPM_P2
2023/09/14 00:01:21;;;;;;;0.20;0.20;;;;;;;18.23;100.00;100482.31;5077883;28;20038;-61
2023/09/14 00:03:47;;;;;;;0.20;0.20;;;;;;;18.27;100.00;100499.16;5072475;28;20029;-60
2023/09/14 00:06:12;;;;;;;0.20;0.20;;;;;;;18.26;100.00;100497.41;5084394;28;20023;-60
2023/09/14 00:08:38;;;;;;;0.20;0.20;;;;;;;18.22;100.00;100488.63;5087980;28;20024;-60
2023/09/14 00:11:04;;;;;;;0.20;0.20;;;;;;;18.23;100.00;100490.41;5089612;28;20028;-60
2023/09/14 00:13:29;;;;;;;0.20;0.20;;;;;;;18.20;100.00;100495.09;5086381;28;20027;-60
2023/09/14 00:15:55;;;;;;;0.20;0.20;;;;;;;18.19;100.00;100496.91;5090113;28;20038;-60
2023/09/14 00:18:21;;;;;;;0.20;0.20;;;;;;;18.19;100.00;100502.28;5096133;28;20047;-60
2023/09/14 00:20:48;;;;;;;0.20;0.20;;;;;;;18.15;100.00;100503.41;5089936;28;20039;-60
2023/09/14 00:23:14;;;;;;;0.25;0.25;;;;;;;18.11;100.00;100495.59;5088815;28;20038;-60
2023/09/14 00:25:39;;;;;;;0.20;0.20;;;;;;;18.11;100.00;100499.16;5099381;28;20020;-60
2023/09/14 00:28:05;;;;;;;0.20;0.20;;;;;;;18.09;100.00;100503.75;5106505;28;20034;-60
2023/09/14 00:30:30;;;;;;;0.20;0.20;;;;;;;18.07;100.00;100508.34;5087149;28;20029;-60
2023/09/14 00:32:56;;;;;;;0.20;0.20;;;;;;;18.06;100.00;100503.91;5071781;28;20034;-60
2023/09/14 00:35:21;;;;;;;0.20;0.20;;;;;;;18.06;100.00;100506.63;5087992;28;20024;-60
2023/09/14 00:37:47;;;;;;;0.20;0.20;;;;;;;18.05;100.00;100504.88;5087829;28;20034;-60
2023/09/14 00:40:14;;;;;;;0.20;0.20;;;;;;;18.04;100.00;100504.94;5089397;28;20121;-60
2023/09/14 00:42:48;;;;;;;0.20;0.20;;;;;;;18.06;100.00;100503.91;5087110;28;20035;-60
2023/09/14 00:45:15;;;;;;;0.20;0.20;;;;;;;18.10;100.00;100510.00;5087092;28;20034;-59
2023/09/14 00:47:44;;;;;;;0.20;0.20;;;;;;;18.10;100.00;100510.84;5086871;28;20086;-60
2023/09/14 00:50:10;;;;;;;0.20;0.20;;;;;;;18.09;100.00;100502.88;5089153;28;20024;-60
2023/09/14 00:52:37;;;;;;;0.20;0.20;;;;;;;18.07;100.00;100499.41;5089452;28;20038;-60
2023/09/14 00:55:07;;;;;;;0.20;0.20;;;;;;;18.01;100.00;100503.31;5087442;28;20024;-60
2023/09/14 00:57:32;;;;;;;0.20;0.20;;;;;;;17.98;100.00;100494.53;5089503;28;20499;-61
2023/09/14 00:59:59;;;;;;;0.20;0.20;;;;;;;17.98;100.00;100499.91;5085990;28;20048;-61
2023/09/14 01:02:26;;;;;;;0.20;0.20;;;;;;;17.94;100.00;100495.66;5089452;28;20022;-61
2023/09/14 01:04:53;;;;;;;0.28;0.28;;;;;;;17.84;100.00;100492.59;5089178;28;20059;-61
2023/09/14 01:07:18;;;;;;;0.20;0.20;;;;;;;17.83;100.00;100490.84;5086354;28;20055;-61
2023/09/14 01:09:44;;;;;;;0.20;0.20;;;;;;;17.80;100.00;100501.78;5088966;28;20115;-60
2023/09/14 01:12:10;;;;;;;0.20;0.20;;;;;;;17.81;100.00;100498.13;5071835;28;20053;-60
2023/09/14 01:14:51;;;;;;;0.20;0.20;;;;;;;17.78;100.00;100492.94;5070108;28;20399;-61
2023/09/14 01:17:26;;;;;;;0.20;0.20;;;;;;;17.76;100.00;100502.91;5067702;28;20048;-60
2023/09/14 01:20:21;;;;;;;0.20;0.20;;;;;;;17.74;100.00;100507.50;5066349;28;20050;-60
2023/09/14 01:23:08;;;;;;;0.20;0.20;;;;;;;17.74;100.00;100504.78;5067634;28;20048;-60
2023/09/14 01:25:43;;;;;;;0.20;0.20;;;;;;;17.72;100.00;100503.16;5048812;28;20037;-60
2023/09/14 01:28:13;;;;;;;0.20;0.20;;;;;;;17.71;100.00;100507.66;5052018;28;20039;-60
2023/09/14 01:30:40;;;;;;;0.30;0.30;;;;;;;17.69;100.00;100503.31;5066725;28;20084;-60
2023/09/14 01:33:09;;;;;;;0.20;0.20;;;;;;;17.67;100.00;100507.91;5067145;28;20033;-60
2023/09/14 01:35:41;;;;;;;0.20;0.20;;;;;;;17.64;100.00;100511.66;5066884;28;20605;-60
2023/09/14 01:38:07;;;;;;;0.20;0.20;;;;;;;17.63;100.00;100515.28;5064080;28;20107;-60
2023/09/14 01:40:36;;;;;;;0.20;0.20;;;;;;;17.62;100.00;100510.84;5069518;28;20071;-60
2023/09/14 01:43:05;;;;;;;0.20;0.20;;;;;;;17.62;100.00;100510.84;5068024;28;20048;-61
2023/09/14 01:45:31;;;;;;;0.20;0.20;;;;;;;17.68;100.00;100507.81;5059381;28;20036;-60
2023/09/14 01:47:57;;;;;;;0.20;0.20;;;;;;;17.71;100.00;100510.34;5069381;28;20036;-61
2023/09/14 01:50:22;;;;;;;0.25;0.25;;;;;;;17.73;100.00;100505.75;5070792;28;20075;-60
2023/09/14 01:52:49;;;;;;;0.20;0.20;;;;;;;17.72;100.00;100509.41;5069887;28;20036;-60
2023/09/14 01:55:16;;;;;;;0.30;0.30;;;;;;;17.74;100.00;100509.34;5072428;28;20016;-61
2023/09/14 01:57:42;;;;;;;0.20;0.20;;;;;;;17.74;100.00;100507.50;5072674;28;20492;-60
2023/09/14 02:00:08;;;;;;;0.20;0.20;;;;;;;17.77;100.00;100512.72;5069006;28;20020;-60
2023/09/14 02:02:33;;;;;;;0.20;0.20;;;;;;;17.76;100.00;100513.66;5051776;28;20044;-60
2023/09/14 02:04:59;;;;;;;0.30;0.30;;;;;;;17.74;100.00;100507.50;5051832;28;20403;-61
2023/09/14 02:07:24;;;;;;;0.20;0.20;;;;;;;17.72;100.00;100509.41;5069654;28;20036;-61
2023/09/14 02:09:51;;;;;;;0.20;0.20;;;;;;;17.71;100.00;100507.66;5045245;28;20028;-61
2023/09/14 02:12:17;;;;;;;0.20;0.20;;;;;;;17.71;100.00;100513.03;5062591;28;20053;-61
2023/09/14 02:14:42;;;;;;;0.20;0.20;;;;;;;17.68;100.00;100505.13;5064548;28;20044;-61
2023/09/14 02:17:08;;;;;;;0.20;0.20;;;;;;;17.64;100.00;100506.28;5053681;28;20036;-61
2023/09/14 02:19:33;;;;;;;0.20;0.20;;;;;;;17.61;100.00;100500.19;5063297;28;20029;-61
2023/09/14 02:21:58;;;;;;;0.20;0.20;;;;;;;17.64;100.00;100500.91;5065371;28;20090;-61
2023/09/14 02:24:24;;;;;;;0.25;0.25;;;;;;;17.64;100.00;100506.28;5071810;28;20345;-61
2023/09/14 02:26:51;;;;;;;0.20;0.20;;;;;;;17.63;100.00;100504.50;5072417;28;20107;-61
2023/09/14 02:29:16;;;;;;;0.20;0.20;;;;;;;17.60;100.00;100502.00;5072241;28;20047;-61
2023/09/14 02:31:42;;;;;;;0.20;0.20;;;;;;;17.60;100.00;100504.69;5071833;28;20028;-61
2023/09/14 02:34:08;;;;;;;0.30;0.30;;;;;;;17.60;100.00;100511.88;5059011;28;20662;-61
2023/09/14 02:36:33;;;;;;;0.20;0.20;;;;;;;17.58;100.00;100508.38;5066810;28;20060;-61
2023/09/14 02:38:59;;;;;;;0.20;0.20;;;;;;;17.57;100.00;100510.22;5071855;28;20020;-61
2023/09/14 02:41:24;;;;;;;0.30;0.30;;;;;;;17.55;100.00;100506.75;5071753;28;20094;-61
2023/09/14 02:43:49;;;;;;;0.30;0.30;;;;;;;17.52;100.00;100506.03;5071538;28;20151;-60
2023/09/14 02:46:15;;;;;;;0.20;0.20;;;;;;;17.50;100.00;100506.13;5057363;28;20037;-60
2023/09/14 02:48:40;;;;;;;0.25;0.25;;;;;;;17.50;100.00;100503.44;5050884;28;20136;-61
2023/09/14 02:51:06;;;;;;;0.28;0.28;;;;;;;17.50;100.00;100498.06;5058666;28;20120;-61
2023/09/14 02:53:31;;;;;;;0.20;0.20;;;;;;;17.43;100.00;100495.75;5050543;28;20460;-60
2023/09/14 02:55:57;;;;;;;0.20;0.20;;;;;;;17.41;100.00;100503.03;5065958;28;20025;-60
2023/09/14 02:58:22;;;;;;;0.20;0.20;;;;;;;17.23;100.00;100475.28;5063356;28;20055;-60
2023/09/14 03:00:48;;;;;;;0.20;0.20;;;;;;;17.38;100.00;100497.81;5070663;28;20033;-60
2023/09/14 03:03:13;;;;;;;0.20;0.20;;;;;;;17.31;100.00;100497.25;5071257;28;20020;-60
2023/09/14 03:05:39;;;;;;;0.30;0.30;;;;;;;17.31;100.00;100509.81;5068833;28;20047;-60
2023/09/14 03:08:05;;;;;;;0.20;0.20;;;;;;;17.22;100.00;100503.09;5053107;28;20039;-60
2023/09/14 03:10:30;;;;;;;0.22;0.22;;;;;;;17.27;100.00;100506.44;5053881;28;20476;-60
2023/09/14 03:12:55;;;;;;;0.20;0.20;;;;;;;17.24;100.00;100511.97;5082484;28;20135;-59
2023/09/14 03:15:21;;;;;;;0.20;0.20;;;;;;;17.17;100.00;100505.16;5072931;28;20028;-60
2023/09/14 03:17:47;;;;;;;0.20;0.20;;;;;;;17.19;100.00;100519.41;5090511;28;20534;-61
2023/09/14 03:20:12;;;;;;;0.20;0.20;;;;;;;17.20;100.00;100517.59;5084007;28;20030;-61
2023/09/14 03:22:38;;;;;;;0.30;0.30;;;;;;;17.16;100.00;100510.63;5090360;28;20035;-60
2023/09/14 03:25:04;;;;;;;0.30;0.30;;;;;;;17.14;100.00;100518.75;5093651;28;20020;-61
2023/09/14 03:27:29;;;;;;;0.20;0.20;;;;;;;17.11;100.00;100518.94;5091534;28;20082;-60
2023/09/14 03:29:54;;;;;;;0.20;0.20;;;;;;;17.10;100.00;100509.09;5090135;28;20030;-60
2023/09/14 03:32:20;;;;;;;0.20;0.20;;;;;;;17.08;100.00;100516.41;5090783;28;20486;-60
2023/09/14 03:34:45;;;;;;;0.20;0.20;;;;;;;17.07;100.00;100509.25;5091344;28;20020;-59
2023/09/14 03:37:11;;;;;;;0.30;0.30;;;;;;;17.10;100.00;100514.47;5089732;28;20815;-60
2023/09/14 03:39:36;;;;;;;0.20;0.20;;;;;;;17.10;100.00;100509.97;5090861;28;20064;-61
2023/09/14 03:42:02;;;;;;;0.20;0.20;;;;;;;17.08;100.00;100511.88;5090662;28;20046;-61
2023/09/14 03:44:27;;;;;;;0.30;0.30;;;;;;;17.11;100.00;100513.56;5082174;28;20064;-60
2023/09/14 03:46:52;;;;;;;0.30;0.30;;;;;;;17.10;100.00;100509.09;5080030;28;20074;-60
2023/09/14 03:49:18;;;;;;;0.20;0.20;;;;;;;17.12;100.00;100517.97;5089899;28;20567;-61
2023/09/14 03:51:43;;;;;;;0.20;0.20;;;;;;;17.13;100.00;100521.53;5089409;28;20772;-60
2023/09/14 03:54:09;;;;;;;0.22;0.22;;;;;;;17.12;100.00;100523.34;5090221;28;20391;-61
2023/09/14 03:56:35;;;;;;;0.30;0.30;;;;;;;17.11;100.00;100518.94;5073492;28;20036;-60
2023/09/14 03:59:00;;;;;;;0.20;0.20;;;;;;;17.08;100.00;100521.78;5090429;28;20529;-60
2023/09/14 04:01:26;;;;;;;0.30;0.30;;;;;;;17.05;100.00;100522.78;5089702;28;20035;-60
2023/09/14 04:03:51;;;;;;;0.20;0.20;;;;;;;17.02;100.00;100522.94;5083063;28;20199;-61
2023/09/14 04:06:17;;;;;;;0.20;0.20;;;;;;;17.00;100.00;100513.25;5088084;28;20073;-60
2023/09/14 04:08:42;;;;;;;0.30;0.30;;;;;;;17.01;100.00;100520.34;5091057;28;20039;-60
2023/09/14 04:11:07;;;;;;;0.28;0.28;;;;;;;17.00;100.00;100524.00;5082599;28;20357;-60
2023/09/14 04:13:34;;;;;;;0.20;0.20;;;;;;;16.95;100.00;100520.66;5089680;28;20431;-60
2023/09/14 04:16:02;;;;;;;0.30;0.30;;;;;;;16.88;100.00;100524.59;5079414;28;20392;-60
2023/09/14 04:18:29;;;;;;;0.30;0.30;;;;;;;16.84;100.00;100531.06;5069540;28;20029;-60
2023/09/14 04:20:54;;;;;;;0.20;0.20;;;;;;;16.77;100.00;100527.81;5073448;28;20107;-60
2023/09/14 04:23:21;;;;;;;0.30;0.30;;;;;;;16.75;100.00;100535.06;5088897;28;20150;-61
2023/09/14 04:25:47;;;;;;;0.30;0.30;;;;;;;16.79;100.00;100538.47;5089295;28;20055;-61
2023/09/14 04:28:18;;;;;;;0.30;0.30;;;;;;;16.78;100.00;100536.75;5074172;28;20134;-61
2023/09/14 04:30:48;;;;;;;0.30;0.30;;;;;;;16.72;100.00;100535.22;5071420;28;20150;-61
2023/09/14 04:33:14;;;;;;;0.30;0.30;;;;;;;16.73;100.00;100546.84;5082132;28;20559;-61
2023/09/14 04:35:41;;;;;;;0.20;0.20;;;;;;;16.72;100.00;100545.97;5072869;28;20020;-61
2023/09/14 04:38:07;;;;;;;0.20;0.20;;;;;;;16.70;100.00;100547.00;5091957;28;20027;-60
2023/09/14 04:40:41;;;;;;;0.20;0.20;;;;;;;16.63;100.00;100549.13;5085645;28;20684;-60
2023/09/14 04:43:08;;;;;;;0.30;0.30;;;;;;;16.59;100.00;100546.66;5088607;28;20061;-60
2023/09/14 04:45:33;;;;;;;0.22;0.22;;;;;;;16.58;100.00;100552.97;5077137;28;20448;-60
2023/09/14 04:47:59;;;;;;;0.30;0.30;;;;;;;16.57;100.00;100556.59;5088644;28;20060;-60
2023/09/14 04:50:25;;;;;;;0.28;0.28;;;;;;;16.55;100.00;100570.13;5085677;28;20332;-60
2023/09/14 04:52:50;;;;;;;0.22;0.22;;;;;;;16.52;100.00;100558.66;5086011;28;20089;-60
2023/09/14 04:55:16;;;;;;;0.30;0.30;;;;;;;16.50;100.00;100563.22;5089183;28;20406;-60
2023/09/14 04:57:41;;;;;;;0.30;0.30;;;;;;;16.45;100.00;100570.56;5086033;28;20566;-60
2023/09/14 05:00:11;;;;;;;0.30;0.30;;;;;;;16.46;100.00;100570.53;5088016;28;20028;-60
2023/09/14 05:02:37;;;;;;;0.30;0.30;;;;;;;16.47;100.00;100568.72;5086355;28;20914;-60
2023/09/14 05:05:04;;;;;;;0.22;0.22;;;;;;;16.44;100.00;100567.00;5088648;28;20144;-60
2023/09/14 05:07:29;;;;;;;0.30;0.30;;;;;;;16.46;100.00;100569.66;5084005;28;20032;-60
2023/09/14 05:09:55;;;;;;;0.30;0.30;;;;;;;16.48;100.00;100574.03;5082144;28;20553;-60
2023/09/14 05:12:20;;;;;;;0.20;0.20;;;;;;;16.48;100.00;100573.16;5070389;28;20052;-60
2023/09/14 05:14:45;;;;;;;0.30;0.30;;;;;;;16.48;100.00;100578.53;5066699;28;20082;-60
2023/09/14 05:17:11;;;;;;;0.20;0.20;;;;;;;16.48;100.00;100567.78;5059715;28;20033;-60
2023/09/14 05:19:42;;;;;;;0.20;0.20;;;;;;;16.48;100.00;100578.53;5053532;28;20032;-61
2023/09/14 05:22:09;;;;;;;0.30;0.30;;;;;;;16.48;100.00;100578.53;5047438;28;20057;-61
2023/09/14 05:24:34;;;;;;;0.30;0.30;;;;;;;16.48;100.00;100584.78;5043383;28;20037;-61
2023/09/14 05:27:00;;;;;;;0.30;0.30;;;;;;;16.46;100.00;100572.34;5062013;28;20031;-61
2023/09/14 05:29:26;;;;;;;0.20;0.20;;;;;;;16.48;100.00;100575.84;5047909;28;20032;-60
2023/09/14 05:31:52;;;;;;;0.20;0.20;;;;;;;16.53;100.00;100582.75;5084187;28;20135;-61
2023/09/14 05:34:17;;;;;;;0.28;0.28;;;;;;;16.58;100.00;100591.44;5061891;28;20463;-60
2023/09/14 05:36:43;;;;;;;0.30;0.30;;;;;;;16.64;100.00;100595.63;5067976;28;20036;-60
2023/09/14 05:39:08;;;;;;;0.20;0.20;;;;;;;16.70;100.00;100595.38;5071611;28;20032;-60
2023/09/14 05:41:34;;;;;;;0.20;0.20;;;;;;;16.74;100.00;100589.75;5070105;28;20028;-60
2023/09/14 05:44:00;;;;;;;0.30;0.30;;;;;;;16.77;100.00;100594.13;5066398;28;20032;-60
2023/09/14 05:46:26;;;;;;;0.20;0.20;;;;;;;16.75;100.00;100593.31;5070314;28;20790;-60
2023/09/14 05:48:51;;;;;;;0.30;0.30;;;;;;;16.84;100.00;100601.81;5069232;28;20549;-61
2023/09/14 05:51:17;;;;;;;0.20;0.20;;;;;;;16.91;100.00;100597.00;5068661;28;20097;-60
2023/09/14 05:53:42;;;;;;;0.20;0.20;;;;;;;16.98;99.54;100601.13;5071202;28;20020;-60
2023/09/14 05:56:08;;;;;;;0.28;0.28;;;;;;;17.07;99.28;100603.34;5064156;28;20167;-60
2023/09/14 05:58:33;;;;;;;0.25;0.25;;;;;;;17.22;98.42;100615.16;5042357;28;20642;-60
2023/09/14 06:01:00;;;;;;;0.30;0.30;;;;;;;17.32;97.66;100609.25;5056647;28;20025;-60
2023/09/14 06:03:26;;;;;;;0.20;0.20;;;;;;;17.50;97.41;100605.66;5052818;28;20029;-60
2023/09/14 06:05:51;;;;;;;0.30;0.30;;;;;;;17.67;96.12;100620.91;5064065;28;20884;-60
2023/09/14 06:08:17;;;;;;;0.20;0.20;;;;;;;17.81;95.36;100611.16;5052335;28;20029;-61
2023/09/14 06:10:42;;;;;;;0.20;0.20;;;;;;;17.94;94.55;100606.88;5051831;28;20043;-61
2023/09/14 06:13:07;;;;;;;0.20;0.20;;;;;;;18.00;91.75;100606.56;5066681;28;20131;-60
2023/09/14 06:15:33;;;;;;;0.20;0.20;;;;;;;18.12;91.34;100611.28;5063237;28;20029;-61
2023/09/14 06:17:58;;;;;;;0.20;0.20;;;;;;;18.12;90.18;100588.88;5064343;28;20035;-60
2023/09/14 06:20:24;;;;;;;0.30;0.30;;;;;;;18.43;88.64;100615.03;5048790;28;20094;-60
2023/09/14 06:22:49;;;;;;;0.20;0.20;;;;;;;18.49;86.87;100617.38;5070339;28;20108;-60
2023/09/14 06:25:15;;;;;;;0.30;0.30;;;;;;;18.60;85.92;100617.66;5069937;28;20082;-61
2023/09/14 06:27:40;;;;;;;0.20;0.20;;;;;;;18.68;84.64;100615.41;5052989;28;20512;-60
2023/09/14 06:30:06;;;;;;;0.20;0.20;;;;;;;19.06;81.94;100623.03;5064536;28;20070;-60
2023/09/14 06:32:32;;;;;;;0.20;0.20;;;;;;;19.45;80.80;100609.09;5066542;28;20036;-60
2023/09/14 06:34:57;;;;;;;0.20;0.20;;;;;;;20.12;80.43;100611.25;5069289;28;20027;-60
2023/09/14 06:37:23;;;;;;;0.20;0.20;;;;;;;21.49;75.88;100611.25;5069139;28;20479;-60
2023/09/14 06:39:48;;;;;;;0.20;0.20;;;;;;;22.75;67.15;100611.34;5068838;28;20036;-60
2023/09/14 06:42:14;;;;;;;0.20;0.20;;;;;;;24.00;61.89;100608.03;5064295;28;20021;-60
2023/09/14 06:44:39;;;;;;;0.20;0.20;;;;;;;24.95;55.84;100610.31;5068023;28;20426;-60
2023/09/14 06:47:04;;;;;;;0.20;0.20;;;;;;;25.52;52.81;100613.63;5053651;28;20500;-60
2023/09/14 06:49:30;;;;;;;0.10;0.10;;;;;;;25.60;52.06;100619.31;5054189;28;20047;-60
2023/09/14 06:51:56;;;;;;;0.10;0.10;;;;;;;26.05;50.05;100619.97;5057279;28;20040;-60
2023/09/14 06:54:21;;;;;;;0.20;0.20;;;;;;;25.76;47.91;100619.75;5055315;28;20346;-60
2023/09/14 06:56:47;;;;;;;0.20;0.20;;;;;;;25.32;50.97;100623.47;5069209;28;20032;-61
2023/09/14 06:59:12;;;;;;;0.10;0.10;;;;;;;25.55;49.05;100616.97;5067824;28;20032;-60
2023/09/14 07:01:38;;;;;;;0.20;0.20;;;;;;;25.54;49.10;100617.97;5063705;28;20024;-60
2023/09/14 07:04:03;;;;;;;0.10;0.10;;;;;;;25.88;49.16;100627.72;5050195;28;20036;-60
2023/09/14 07:06:29;;;;;;;0.10;0.10;;;;;;;25.68;48.60;100627.72;5052738;28;20551;-60
2023/09/14 07:08:54;;;;;;;0.10;0.10;;;;;;;25.21;50.61;100628.06;5050488;28;20387;-60
2023/09/14 07:11:20;;;;;;;0.20;0.20;;;;;;;25.63;51.05;100628.09;5062868;28;20056;-60
2023/09/14 07:13:45;;;;;;;0.17;0.17;;;;;;;26.33;48.34;100625.63;5069689;28;20107;-60
2023/09/14 07:16:10;;;;;;;0.20;0.20;;;;;;;26.13;48.32;100631.09;5058627;28;20033;-60
2023/09/14 07:18:36;;;;;;;0.13;0.13;;;;;;;25.95;48.30;100630.78;5050992;28;20040;-60
2023/09/14 07:21:02;;;;;;;0.10;0.10;;;;;;;26.18;48.42;100628.84;5055663;28;20116;-60
2023/09/14 07:23:28;;;;;;;0.15;0.15;;;;;;;26.91;47.36;100637.69;5070579;28;20032;-60
2023/09/14 07:25:54;;;;;;;0.10;0.10;;;;;;;26.89;44.85;100634.22;5061463;28;20020;-60
2023/09/14 07:28:20;;;;;;;0.10;0.10;;;;;;;26.73;46.13;100639.34;5053331;28;20538;-60
2023/09/14 07:30:47;;;;;;;0.10;0.10;;;;;;;26.88;45.33;100641.56;5051196;28;20067;-60
2023/09/14 07:33:13;;;;;;;0.10;0.10;;;;;;;26.97;46.24;100637.13;5051110;28;20064;-60
2023/09/14 07:35:41;;;;;;;0.10;0.10;;;;;;;26.57;46.43;100633.50;5035562;28;20064;-60
2023/09/14 07:38:12;;;;;;;0.10;0.10;;;;;;;26.67;48.19;100634.44;5055942;28;20033;-60
2023/09/14 07:40:38;;;;;;;0.10;0.10;;;;;;;26.97;46.82;100632.53;5053372;28;20029;-60
2023/09/14 07:43:04;;;;;;;0.10;0.10;;;;;;;26.63;46.96;100628.38;5050409;28;20032;-60
2023/09/14 07:45:30;;;;;;;0.10;0.10;;;;;;;26.75;47.44;100646.41;5051625;28;20025;-60
2023/09/14 07:47:56;;;;;;;0.10;0.10;;;;;;;27.00;47.02;100637.72;5049915;28;20033;-60
2023/09/14 07:50:21;;;;;;;0.10;0.10;;;;;;;27.00;46.91;100640.44;5051055;28;21846;-60
2023/09/14 07:52:47;;;;;;;0.10;0.10;;;;;;;26.27;46.91;100641.66;5069254;28;20391;-60
2023/09/14 07:55:12;;;;;;;0.10;0.10;;;;;;;26.04;50.03;100645.53;5058822;28;20044;-59
2023/09/14 07:57:38;;;;;;;0.10;0.10;;;;;;;26.36;48.67;100646.31;5054993;28;20475;-60
2023/09/14 08:00:04;;;;;;;0.10;0.10;;;;;;;26.53;48.59;100643.81;5049426;28;20464;-59
2023/09/14 08:02:30;;;;;;;0.10;0.10;;;;;;;26.77;47.26;100649.00;5063411;28;20481;-60
2023/09/14 08:04:55;;;;;;;0.10;0.10;;;;;;;26.97;46.33;100651.66;5069734;28;20119;-60
2023/09/14 08:07:20;;;;;;;0.10;0.10;;;;;;;26.97;47.62;100656.25;5059581;28;20068;-60
2023/09/14 08:09:46;;;;;;;0.10;0.10;;;;;;;26.75;48.06;100648.28;5055151;28;20040;-60
2023/09/14 08:12:11;;;;;;;0.10;0.10;;;;;;;27.13;47.28;100654.72;5056272;28;20179;-60
2023/09/14 08:14:37;;;;;;;0.10;0.10;;;;;;;27.23;45.60;100655.59;5062010;28;20024;-60
2023/09/14 08:17:02;;;;;;;0.10;0.10;;;;;;;27.46;46.83;100655.41;5059579;28;20150;-60
2023/09/14 08:19:28;;;;;;;0.10;0.10;;;;;;;27.27;47.64;100656.19;5069405;28;20030;-59
2023/09/14 08:21:53;;;;;;;0.10;0.10;;;;;;;27.38;46.66;100658.00;5064044;28;20112;-59
2023/09/14 08:24:19;;;;;;;0.10;0.10;;;;;;;27.39;46.33;100652.38;5062201;28;20020;-60
2023/09/14 08:26:44;;;;;;;0.00;0.00;;;;;;;27.73;46.49;100661.91;5069098;28;20391;-59
2023/09/14 08:29:10;;;;;;;0.10;0.10;;;;;;;28.14;46.05;100664.38;5063486;28;20036;-59
2023/09/14 08:31:36;;;;;;;0.10;0.10;;;;;;;28.43;44.89;100659.69;5068522;28;20038;-60
2023/09/14 08:34:01;;;;;;;0.10;0.10;;;;;;;28.11;45.38;100659.19;5060352;28;20024;-60
2023/09/14 08:36:28;;;;;;;0.10;0.10;;;;;;;28.28;45.75;100655.72;5052266;28;20048;-60
2023/09/14 08:38:53;;;;;;;0.00;0.00;;;;;;;28.24;44.53;100653.41;5065293;28;20031;-60
2023/09/14 08:41:29;;;;;;;0.00;0.00;;;;;;;27.54;45.79;100664.63;5067985;28;20028;-59
2023/09/14 08:43:56;;;;;;;0.10;0.10;;;;;;;26.81;48.02;100658.63;5050293;28;20089;-60
2023/09/14 08:46:23;;;;;;;0.00;0.00;;;;;;;26.61;48.83;100656.78;5063220;28;20024;-60
2023/09/14 08:48:52;;;;;;;0.00;0.00;;;;;;;26.68;48.98;100653.41;5067517;28;20029;-60
2023/09/14 08:51:20;;;;;;;0.10;0.10;;;;;;;26.24;51.49;100650.13;5065365;28;20464;-60
2023/09/14 08:53:46;;;;;;;0.10;0.10;;;;;;;26.69;51.95;100659.72;5054320;28;20082;-59
2023/09/14 08:56:13;;;;;;;0.10;0.10;;;;;;;26.54;48.66;100658.34;5062784;28;20442;-60
2023/09/14 08:58:40;;;;;;;0.00;0.00;;;;;;;26.24;49.99;100652.84;5065587;28;20068;-59
2023/09/14 09:01:09;;;;;;;0.00;0.00;;;;;;;25.67;51.66;100653.22;5055880;28;20027;-59
2023/09/14 09:03:34;;;;;;;0.10;0.10;;;;;;;25.27;54.06;100647.50;5051148;28;20033;-59
2023/09/14 09:06:00;;;;;;;0.10;0.10;;;;;;;25.05;55.39;100644.84;5048150;28;20044;-60
2023/09/14 09:08:27;;;;;;;0.08;0.08;;;;;;;25.15;55.37;100648.53;5049178;28;20035;-60
2023/09/14 09:10:53;;;;;;;0.00;0.00;;;;;;;25.02;56.13;100649.66;5063890;28;20079;-59
2023/09/14 09:13:18;;;;;;;0.10;0.10;;;;;;;25.04;56.39;100650.41;5069970;28;20479;-60
2023/09/14 09:15:44;;;;;;;0.10;0.10;;;;;;;25.22;57.01;100655.19;5064753;28;20529;-60
2023/09/14 09:18:11;;;;;;;0.08;0.08;;;;;;;25.68;56.96;100644.06;5050174;28;20040;-60
2023/09/14 09:20:45;;;;;;;0.10;0.10;;;;;;;25.97;53.70;100650.59;5053719;28;20033;-60
2023/09/14 09:23:17;;;;;;;0.10;0.10;;;;;;;26.35;54.45;100650.03;5059101;28;20108;-59
2023/09/14 09:25:54;;;;;;;0.10;0.10;;;;;;;27.26;54.07;100650.88;5067659;28;20036;-59
2023/09/14 09:28:27;;;;;;;0.10;0.10;;;;;;;28.01;51.61;100641.94;5053568;28;20033;-59
2023/09/14 09:30:54;;;;;;;0.10;0.10;;;;;;;27.96;48.48;100638.75;5055459;28;20039;-60
2023/09/14 09:33:33;;;;;;;0.10;0.10;;;;;;;27.45;50.22;100640.88;5050564;28;20112;-59
2023/09/14 09:36:00;;;;;;;0.10;0.10;;;;;;;26.88;52.31;100643.44;5048188;28;20025;-59
2023/09/14 09:38:27;;;;;;;0.00;0.00;;;;;;;27.29;53.79;100654.22;5048610;28;20029;-59
2023/09/14 09:40:53;;;;;;;0.00;0.00;;;;;;;27.87;49.48;100649.69;5049557;28;20048;-60
2023/09/14 09:43:19;;;;;;;0.00;0.00;;;;;;;28.34;47.68;100648.78;5052554;28;20368;-60
2023/09/14 09:45:46;;;;;;;0.10;0.10;;;;;;;28.78;46.90;100647.25;5056676;28;20045;-59
2023/09/14 09:48:12;;;;;;;0.00;0.00;;;;;;;29.21;46.31;100639.28;5048011;28;20059;-60
2023/09/14 09:50:39;;;;;;;0.03;0.03;;;;;;;29.49;45.88;100640.94;5048698;28;20120;-59
2023/09/14 09:53:13;;;;;;;0.00;0.00;;;;;;;29.83;45.67;100631.03;5048052;28;20079;-60
2023/09/14 09:55:39;;;;;;;0.00;0.00;;;;;;;29.87;43.66;100626.94;5061361;28;20623;-62
2023/09/14 09:58:07;;;;;;;0.00;0.00;;;;;;;30.02;44.22;100630.84;5048439;28;20436;-60
2023/09/14 10:00:39;;;;;;;0.00;0.00;;;;;;;30.09;43.33;100626.47;5049876;28;20116;-59
2023/09/14 10:03:05;;;;;;;0.00;0.00;;;;;;;30.20;43.30;100628.09;5068912;28;20773;-58
2023/09/14 10:05:32;;;;;;;0.00;0.00;;;;;;;30.37;43.30;100630.81;5065060;28;20025;-61
2023/09/14 10:07:59;;;;;;;0.00;0.00;;;;;;;30.16;42.34;100627.56;5057661;28;20110;-60
2023/09/14 10:10:26;;;;;;;0.00;0.00;;;;;;;30.29;42.25;100630.78;5057300;28;20035;-60
2023/09/14 10:12:56;;;;;;;0.00;0.00;;;;;;;30.66;44.14;100624.97;5053201;28;20096;-60
2023/09/14 10:15:26;;;;;;;0.00;0.00;;;;;;;30.64;42.35;100610.56;5051217;28;20025;-60
2023/09/14 10:17:57;;;;;;;0.00;0.00;;;;;;;29.83;44.18;100617.31;5058660;28;20135;-60
2023/09/14 10:20:27;;;;;;;0.00;0.00;;;;;;;29.40;43.57;100617.22;5051108;28;20291;-59
2023/09/14 10:22:52;;;;;;;0.00;0.00;;;;;;;29.89;44.91;100616.69;5056392;28;20039;-59
2023/09/14 10:25:20;;;;;;;0.00;0.00;;;;;;;30.45;43.29;100617.13;5050752;28;20025;-59
2023/09/14 10:27:45;;;;;;;0.00;0.00;;;;;;;30.73;42.29;100615.94;5053734;28;20078;-60
2023/09/14 10:30:18;;;;;;;0.00;0.00;;;;;;;30.48;41.06;100616.81;5059191;28;20472;-59
2023/09/14 10:32:48;;;;;;;0.00;0.00;;;;;;;30.55;41.43;100606.91;5057336;28;20078;-59
2023/09/14 10:35:13;;;;;;;0.00;0.00;;;;;;;30.62;42.60;100605.25;5058364;28;20036;-60
2023/09/14 10:37:44;;;;;;;0.00;0.00;;;;;;;30.93;41.81;100605.56;5069113;28;20030;-60
2023/09/14 10:40:12;;;;;;;0.00;0.00;;;;;;;31.03;42.49;100602.69;5067148;28;20029;-60
2023/09/14 10:42:39;;;;;;;0.00;0.00;;;;;;;31.31;41.60;100596.78;5057755;28;20495;-60
2023/09/14 10:45:05;;;;;;;0.00;0.00;;;;;;;31.47;41.10;100593.19;5051912;28;20123;-60
2023/09/14 10:47:36;;;;;;;0.00;0.00;;;;;;;31.63;41.11;100596.00;5050943;28;20049;-60
2023/09/14 10:50:04;;;;;;;0.00;0.00;;;;;;;30.71;40.71;100598.75;5053948;28;20824;-59
2023/09/14 10:52:30;;;;;;;0.00;0.00;;;;;;;30.63;41.85;100590.47;5052050;28;20025;-60
2023/09/14 10:54:56;;;;;;;0.00;0.00;;;;;;;30.68;42.18;100582.59;5065601;28;20041;-60
2023/09/14 10:57:24;;;;;;;0.00;0.00;;;;;;;30.76;41.19;100593.63;5065869;28;20444;-60
2023/09/14 10:59:55;;;;;;;0.00;0.00;;;;;;;30.75;41.29;100591.91;5068168;28;20024;-60
2023/09/14 11:02:48;;;;;;;0.00;0.00;;;;;;;30.89;40.23;100582.19;5051552;28;20055;-59
2023/09/14 11:05:16;;;;;;;0.00;0.00;;;;;;;31.13;42.01;100584.16;5054491;28;20041;-59
2023/09/14 11:07:49;;;;;;;0.00;0.00;;;;;;;31.29;40.59;100579.56;5066249;28;20462;-59
2023/09/14 11:10:17;;;;;;;;;;;;;;;31.40;41.06;100572.94;5053915;28;20498;-59
2023/09/14 11:12:43;;;;;;;0.00;0.00;;;;;;;31.86;39.97;100564.06;5068640;28;19962;-60
2023/09/14 11:15:20;;;;;;;0.00;0.00;;;;;;;32.00;39.63;100561.47;5057292;28;20108;-60
2023/09/14 11:17:48;;;;;;;0.00;0.00;;;;;;;32.00;37.85;100568.84;5050405;28;20024;-59
2023/09/14 11:20:19;;;;;;;0.00;0.00;;;;;;;31.50;40.02;100552.47;5063564;28;20782;-59